Карточка аэропорта UACC

Внимание!
Информация на этой странице в стадии наполнения.
Если вы не увидели какой-то информации, или заметили неточность - пожалуйста сообщите нам!
Спасибо!
Команда RU-STAFF
Название аэропортаНур-Султан
Название аэропорта (англ.)Nur-Sultan
Превышение1165 ft. (355.1 m.)
Координаты51°1.3319999999999', 71°28.014'
Высота перехода10000
Эшелон переходаby ATC
Коды ответчика0601-0627, 7201-7217
Зона ОрВДНур-Султан РПИ (UACN)
Данные METARUACC 271030Z 19003MPS CAVOK M15/M19 Q1029 NOSIG RMK QFE740/0987
Проноз погоды (TAF)UACC 270509Z 2706/2806 20004MPS 6000 BKN011 BKN020 TXM13/2709Z TNM24/2801Z TEMPO 2706/2712 17003MPS BKN005 FM271200 18003MPS 3100 BR BKN005 OVC011 TEMPO 2712/2724 VRB02MPS 1000 BR OVC003 TEMPO 2800/2806 VRB02MPS 1000 BR OVC003
NOTAMshow/hide NOTAM
AWOS   TABLE

Информация о ВПП

ВПП Длина ВПП (м.) Покрытие Курс ВПП Частота ILS
043500Асфальтобетон35109.5
223500Асфальтобетон215111.7

Диспетчерские позиции

Позывной Наименование органа УВД Частота
UACC_APPНур-Султан Подход124.6
UACC_R_APPНур-Султан Круг120.7
UACC_TWRНур-Султан Вышка118.7
UACC_GNDНур-Султан Руление119.6



Спутниковое изображение